createdAt,value
2022-09-06T00:02:20.329Z,68.37
2022-09-06T00:04:47.137Z,68.68
2022-09-06T00:07:13.942Z,69.55
2022-09-06T00:09:40.774Z,69.66
2022-09-06T00:12:07.874Z,69.52
2022-09-06T00:14:34.641Z,69.16
2022-09-06T00:17:01.428Z,68.77
2022-09-06T00:19:28.202Z,69.50
2022-09-06T00:21:54.973Z,69.33
2022-09-06T00:24:21.715Z,69.11
2022-09-06T00:26:48.554Z,69.02
2022-09-06T00:29:15.419Z,68.94
2022-09-06T00:31:42.212Z,68.98
2022-09-06T00:34:09.130Z,68.88
2022-09-06T00:36:35.939Z,68.85
2022-09-06T00:39:02.948Z,69.26
2022-09-06T00:41:29.750Z,69.46
2022-09-06T00:43:57.068Z,69.26
2022-09-06T00:46:28.971Z,69.65
2022-09-06T00:49:01.436Z,70.96
2022-09-06T00:51:30.547Z,71.93
2022-09-06T00:53:58.399Z,72.01
2022-09-06T00:56:26.561Z,71.33
2022-09-06T00:58:53.582Z,70.93
2022-09-06T01:01:20.428Z,70.49
2022-09-06T01:03:47.584Z,70.13
2022-09-06T01:06:18.383Z,70.37
2022-09-06T01:09:08.872Z,70.26
2022-09-06T01:11:49.707Z,70.48
2022-09-06T01:14:48.056Z,71.43
2022-09-06T01:17:16.838Z,71.84
2022-09-06T01:20:10.636Z,71.66
2022-09-06T01:22:48.818Z,71.64
2022-09-06T01:25:46.969Z,71.85
2022-09-06T01:28:33.606Z,71.91
2022-09-06T01:31:05.492Z,72.33
2022-09-06T01:34:03.637Z,72.03
2022-09-06T01:36:49.716Z,72.37
2022-09-06T01:39:31.174Z,72.10
2022-09-06T01:42:01.533Z,71.87
2022-09-06T01:44:30.607Z,71.32
2022-09-06T01:47:05.375Z,71.01
2022-09-06T01:49:49.163Z,70.71
2022-09-06T01:52:22.017Z,70.59
2022-09-06T01:55:07.322Z,70.37
2022-09-06T01:57:51.805Z,70.53
2022-09-06T02:00:19.888Z,70.79
2022-09-06T02:03:01.244Z,70.61
2022-09-06T02:05:36.346Z,70.32
2022-09-06T02:08:11.036Z,70.57
2022-09-06T02:10:44.893Z,70.83
2022-09-06T02:13:15.458Z,71.28
2022-09-06T02:15:47.715Z,70.82
2022-09-06T02:18:21.754Z,71.01
2022-09-06T02:20:52.510Z,70.41
2022-09-06T02:23:23.426Z,70.32
2022-09-06T02:25:55.053Z,70.52
2022-09-06T02:28:23.175Z,70.37
2022-09-06T02:30:56.482Z,70.21
2022-09-06T02:33:28.616Z,70.32
2022-09-06T02:35:56.030Z,70.50
2022-09-06T02:38:25.073Z,70.47
2022-09-06T02:40:54.100Z,70.70
2022-09-06T02:43:21.857Z,71.30
2022-09-06T02:45:48.755Z,71.28
2022-09-06T02:48:15.710Z,71.19
2022-09-06T02:50:42.668Z,70.88
2022-09-06T02:53:12.408Z,70.96
2022-09-06T02:55:39.969Z,71.01
2022-09-06T02:58:09.013Z,70.76
2022-09-06T03:00:36.019Z,70.30
2022-09-06T03:03:03.939Z,70.43
2022-09-06T03:05:31.190Z,70.30
2022-09-06T03:07:57.989Z,70.52
2022-09-06T03:10:26.342Z,70.82
2022-09-06T03:12:53.636Z,70.97
2022-09-06T03:15:21.006Z,71.38
2022-09-06T03:17:47.895Z,71.26
2022-09-06T03:20:14.991Z,71.30
2022-09-06T03:22:42.189Z,71.03
2022-09-06T03:25:10.449Z,71.12
2022-09-06T03:27:37.775Z,71.57
2022-09-06T03:30:06.333Z,71.56
2022-09-06T03:32:33.322Z,71.47
2022-09-06T03:35:00.151Z,71.51
2022-09-06T03:37:27.417Z,71.21
2022-09-06T03:39:54.814Z,71.28
2022-09-06T03:42:22.027Z,72.11
2022-09-06T03:44:48.918Z,72.49
2022-09-06T03:47:19.487Z,72.52
2022-09-06T03:49:47.621Z,72.82
2022-09-06T03:52:14.897Z,72.98
2022-09-06T03:54:41.706Z,73.10
2022-09-06T03:57:08.870Z,72.75
2022-09-06T03:59:35.747Z,73.01
2022-09-06T04:02:03.522Z,72.60
2022-09-06T04:04:30.372Z,72.87
2022-09-06T04:06:58.058Z,72.95
2022-09-06T04:09:25.285Z,72.87
2022-09-06T04:11:52.304Z,73.31
2022-09-06T04:14:19.441Z,73.45
2022-09-06T04:16:46.419Z,73.54
2022-09-06T04:19:13.319Z,73.52
2022-09-06T04:21:40.561Z,73.34
2022-09-06T04:24:07.508Z,73.80
2022-09-06T04:26:34.653Z,74.24
2022-09-06T04:29:01.738Z,74.19
2022-09-06T04:31:29.270Z,73.57
2022-09-06T04:33:56.218Z,73.64
2022-09-06T04:36:23.483Z,73.91
2022-09-06T04:38:50.490Z,73.93
2022-09-06T04:41:19.489Z,73.92
2022-09-06T04:43:46.410Z,73.25
2022-09-06T04:46:30.288Z,72.95
2022-09-06T04:48:59.174Z,72.99
2022-09-06T04:51:26.312Z,73.39
2022-09-06T04:53:53.579Z,73.55
2022-09-06T04:56:24.411Z,73.55
2022-09-06T04:58:52.866Z,73.09
2022-09-06T05:01:20.889Z,72.97
2022-09-06T05:03:47.977Z,73.90
2022-09-06T05:06:21.945Z,74.61
2022-09-06T05:08:50.101Z,74.66
2022-09-06T05:11:18.158Z,74.37
2022-09-06T05:13:47.157Z,73.38
2022-09-06T05:16:14.357Z,71.93
2022-09-06T05:18:41.974Z,71.76
2022-09-06T05:21:09.042Z,72.30
2022-09-06T05:23:36.237Z,71.20
2022-09-06T05:26:03.880Z,69.75
2022-09-06T05:28:31.175Z,69.14
2022-09-06T05:31:25.949Z,68.27
2022-09-06T05:33:53.636Z,68.25
2022-09-06T05:36:23.401Z,68.26
2022-09-06T05:38:51.488Z,67.76
2022-09-06T05:41:18.968Z,66.96
2022-09-06T05:43:46.839Z,66.42
2022-09-06T05:46:14.362Z,66.24
2022-09-06T05:48:42.162Z,65.65
2022-09-06T05:51:13.332Z,65.71
2022-09-06T05:53:42.576Z,64.84
2022-09-06T05:56:10.677Z,63.74
2022-09-06T05:58:39.068Z,63.48
2022-09-06T06:01:08.453Z,63.43
2022-09-06T06:03:35.468Z,62.93
2022-09-06T06:06:02.426Z,62.62
2022-09-06T06:08:29.368Z,62.13
2022-09-06T06:11:00.366Z,62.22
2022-09-06T06:13:30.259Z,61.93
2022-09-06T06:15:57.290Z,60.23
2022-09-06T06:18:24.238Z,59.71
2022-09-06T06:20:52.122Z,59.36
2022-09-06T06:23:21.441Z,58.39
2022-09-06T06:25:48.495Z,57.60
2022-09-06T06:28:15.418Z,56.21
2022-09-06T06:30:42.467Z,55.59
2022-09-06T06:33:09.318Z,55.51
2022-09-06T06:35:39.948Z,55.14
2022-09-06T06:38:07.106Z,55.70
2022-09-06T06:40:35.160Z,54.20
2022-09-06T06:43:02.273Z,53.45
2022-09-06T06:45:33.569Z,53.48
2022-09-06T06:48:00.603Z,52.96
2022-09-06T06:50:28.405Z,53.15
2022-09-06T06:52:55.987Z,51.01
2022-09-06T06:55:23.222Z,50.79
2022-09-06T06:57:51.204Z,50.90
2022-09-06T07:00:18.484Z,50.69
2022-09-06T07:02:45.379Z,49.49
2022-09-06T07:08:00.314Z,49.89
2022-09-06T07:12:58.162Z,48.16
2022-09-06T07:15:25.420Z,46.67
2022-09-06T07:17:53.486Z,45.84
2022-09-06T07:20:20.830Z,45.13
2022-09-06T07:22:47.825Z,44.89
2022-09-06T07:25:21.240Z,45.02
2022-09-06T07:27:49.414Z,44.77
2022-09-06T07:30:17.250Z,43.51
2022-09-06T07:32:44.380Z,41.72
2022-09-06T07:35:14.807Z,41.89
2022-09-06T07:37:45.555Z,40.39
2022-09-06T07:40:15.096Z,38.64
2022-09-06T07:42:42.852Z,39.55
2022-09-06T07:45:09.917Z,39.43
2022-09-06T07:53:16.699Z,35.88
2022-09-06T07:55:49.018Z,36.83
2022-09-06T07:58:20.695Z,36.06
2022-09-06T08:01:06.258Z,35.54
2022-09-06T08:03:33.300Z,35.75
2022-09-06T08:11:23.837Z,36.61
2022-09-06T08:13:53.438Z,37.38
2022-09-06T08:16:35.540Z,35.51
2022-09-06T08:19:05.195Z,34.39
2022-09-06T08:21:39.273Z,35.56
2022-09-06T08:24:08.793Z,35.50
2022-09-06T08:26:39.724Z,36.54
2022-09-06T08:29:08.992Z,37.25
2022-09-06T08:31:39.191Z,38.39
2022-09-06T08:34:06.646Z,38.96
2022-09-06T08:36:34.624Z,38.28
2022-09-06T08:39:07.037Z,37.69
2022-09-06T08:41:41.045Z,38.09
2022-09-06T08:47:04.819Z,37.18
2022-09-06T08:49:36.063Z,37.31
2022-09-06T08:52:26.949Z,36.02
2022-09-06T08:55:00.036Z,36.03
2022-09-06T08:57:37.039Z,36.33
2022-09-06T09:00:11.177Z,36.57
2022-09-06T09:02:50.332Z,37.37
2022-09-06T09:05:23.748Z,36.94
2022-09-06T09:07:55.205Z,38.91
2022-09-06T09:10:42.841Z,37.32
2022-09-06T09:13:23.091Z,38.24
2022-09-06T09:15:51.468Z,38.37
2022-09-06T09:18:24.914Z,37.14
2022-09-06T09:20:53.031Z,36.13
2022-09-06T09:23:20.101Z,35.58
2022-09-06T09:25:48.768Z,35.90
2022-09-06T09:28:19.348Z,36.11
2022-09-06T09:30:54.499Z,35.55
2022-09-06T09:33:39.520Z,35.21
2022-09-06T09:36:13.395Z,36.02
2022-09-06T09:38:45.455Z,34.34
2022-09-06T09:41:29.036Z,33.65
2022-09-06T09:44:04.191Z,34.52
2022-09-06T09:46:56.678Z,34.70
2022-09-06T09:49:28.428Z,34.94
2022-09-06T09:52:16.231Z,34.83
2022-09-06T09:54:45.630Z,35.13
2022-09-06T09:57:18.873Z,34.47
2022-09-06T09:59:57.945Z,33.85
2022-09-06T10:02:33.489Z,33.64
2022-09-06T10:05:07.345Z,33.27
2022-09-06T10:07:57.807Z,32.43
2022-09-06T10:10:29.229Z,32.20
2022-09-06T10:13:29.780Z,32.82
2022-09-06T10:16:08.752Z,32.50
2022-09-06T10:18:40.942Z,32.03
2022-09-06T10:21:14.024Z,32.33
2022-09-06T10:26:55.849Z,32.38
2022-09-06T10:29:32.699Z,32.43
2022-09-06T10:32:08.614Z,32.48
2022-09-06T10:34:51.852Z,32.49
2022-09-06T10:37:26.318Z,33.18
2022-09-06T10:39:58.347Z,33.97
2022-09-06T10:42:45.851Z,33.83
2022-09-06T10:45:19.110Z,32.90
2022-09-06T10:48:05.559Z,33.02
2022-09-06T10:50:36.283Z,34.44
2022-09-06T10:53:11.220Z,33.61
2022-09-06T10:55:41.344Z,33.73
2022-09-06T10:58:19.786Z,32.44
2022-09-06T11:00:49.967Z,33.18
2022-09-06T11:06:23.273Z,33.25
2022-09-06T11:08:58.485Z,33.24
2022-09-06T11:11:41.767Z,32.65
2022-09-06T11:15:09.428Z,31.78
2022-09-06T11:17:31.018Z,33.18
2022-09-06T11:20:17.779Z,32.53
2022-09-06T11:23:12.817Z,32.83
2022-09-06T11:25:59.208Z,32.44
2022-09-06T11:28:33.220Z,32.29
2022-09-06T11:31:00.813Z,32.51
2022-09-06T11:33:33.922Z,32.44
2022-09-06T11:36:33.261Z,33.15
2022-09-06T11:39:03.132Z,31.63
2022-09-06T11:42:02.655Z,31.77
2022-09-06T11:44:54.574Z,31.37
2022-09-06T11:47:41.514Z,32.91
2022-09-06T11:50:28.850Z,31.13
2022-09-06T11:53:17.272Z,31.91
2022-09-06T11:56:26.700Z,31.70
2022-09-06T11:58:59.961Z,30.50
2022-09-06T12:04:20.060Z,30.17
2022-09-06T12:07:11.751Z,30.37
2022-09-06T12:09:57.364Z,29.89
2022-09-06T12:12:42.066Z,29.68
2022-09-06T12:15:25.426Z,29.00
2022-09-06T12:17:53.047Z,29.72
2022-09-06T12:20:51.527Z,29.06
2022-09-06T12:23:35.897Z,28.80
2022-09-06T12:26:32.282Z,27.58
2022-09-06T12:29:00.274Z,26.10
2022-09-06T12:31:31.860Z,25.38
2022-09-06T12:34:14.058Z,25.42
2022-09-06T12:40:44.004Z,25.55
2022-09-06T12:43:16.184Z,26.87
2022-09-06T12:45:47.549Z,27.03
2022-09-06T12:48:32.783Z,28.58
2022-09-06T12:51:09.562Z,28.19
2022-09-06T12:53:37.177Z,28.34
2022-09-06T12:56:09.197Z,27.95
2022-09-06T12:58:37.596Z,27.11
2022-09-06T13:01:14.140Z,26.45
2022-09-06T13:03:45.939Z,26.59
2022-09-06T13:06:44.293Z,26.53
2022-09-06T13:09:14.837Z,25.92
2022-09-06T13:11:46.686Z,26.71
2022-09-06T13:14:20.046Z,27.83
2022-09-06T13:16:48.502Z,27.46
2022-09-06T13:19:29.957Z,28.86
2022-09-06T13:21:58.654Z,29.33
2022-09-06T13:24:27.387Z,29.13
2022-09-06T13:26:54.976Z,28.85
2022-09-06T13:29:23.426Z,29.71
2022-09-06T13:31:52.680Z,30.00
2022-09-06T13:34:29.801Z,29.40
2022-09-06T13:37:03.994Z,29.31
2022-09-06T13:39:40.103Z,29.71
2022-09-06T13:42:10.801Z,29.46
2022-09-06T13:44:39.731Z,29.00
2022-09-06T13:47:06.666Z,28.62
2022-09-06T13:49:34.122Z,30.62
2022-09-06T13:52:03.972Z,29.59
2022-09-06T13:54:32.540Z,30.01
2022-09-06T13:57:01.943Z,29.84
2022-09-06T13:59:29.093Z,30.68
2022-09-06T14:02:04.955Z,30.74
2022-09-06T14:04:32.585Z,30.75
2022-09-06T14:06:59.866Z,30.98
2022-09-06T14:09:26.796Z,31.90
2022-09-06T14:12:40.872Z,30.84
2022-09-06T14:15:08.471Z,30.98
2022-09-06T14:17:35.336Z,30.36
2022-09-06T14:20:02.294Z,31.03
2022-09-06T14:22:30.452Z,32.51
2022-09-06T14:24:57.423Z,33.00
2022-09-06T14:27:24.455Z,32.58
2022-09-06T14:29:51.229Z,32.60
2022-09-06T14:32:22.347Z,33.12
2022-09-06T14:34:49.657Z,34.02
2022-09-06T14:37:16.495Z,32.95
2022-09-06T14:40:30.494Z,32.89
2022-09-06T14:42:58.247Z,33.38
2022-09-06T14:45:25.807Z,33.23
2022-09-06T14:47:52.911Z,34.69
2022-09-06T14:50:20.358Z,35.67
2022-09-06T14:52:48.472Z,36.03
2022-09-06T14:55:15.369Z,34.81
2022-09-06T14:57:42.298Z,35.59
2022-09-06T15:00:11.089Z,36.05
2022-09-06T15:02:38.079Z,34.78
2022-09-06T15:05:06.677Z,35.01
2022-09-06T15:07:33.537Z,35.35
2022-09-06T15:10:00.679Z,35.72
2022-09-06T15:12:27.481Z,34.74
2022-09-06T15:14:54.385Z,34.74
2022-09-06T15:17:21.216Z,35.40
2022-09-06T15:19:48.051Z,35.35
2022-09-06T15:22:14.886Z,35.61
2022-09-06T15:24:41.693Z,35.20
2022-09-06T15:27:08.509Z,35.78
2022-09-06T15:29:35.342Z,35.88
2022-09-06T15:32:02.340Z,36.64
2022-09-06T15:34:29.226Z,36.77
2022-09-06T15:36:57.248Z,37.61
2022-09-06T15:39:24.235Z,37.05
2022-09-06T15:41:51.920Z,36.69
2022-09-06T15:44:21.609Z,37.66
2022-09-06T15:46:54.082Z,37.46
2022-09-06T15:49:27.471Z,37.16
2022-09-06T15:51:57.057Z,37.72
2022-09-06T15:54:39.815Z,38.11
2022-09-06T15:57:07.670Z,38.26
2022-09-06T15:59:34.526Z,37.94
2022-09-06T16:02:01.488Z,37.91
2022-09-06T16:04:28.333Z,38.39
2022-09-06T16:06:56.823Z,38.72
2022-09-06T16:09:23.716Z,39.55
2022-09-06T16:11:50.580Z,39.94
2022-09-06T16:14:18.080Z,39.92
2022-09-06T16:16:45.684Z,40.20
2022-09-06T16:19:13.164Z,40.41
2022-09-06T16:21:42.053Z,41.23
2022-09-06T16:24:11.659Z,41.79
2022-09-06T16:26:42.511Z,42.05
2022-09-06T16:29:11.734Z,42.88
2022-09-06T16:31:40.508Z,43.13
2022-09-06T16:34:08.934Z,43.14
2022-09-06T16:36:35.995Z,43.90
2022-09-06T16:39:04.120Z,44.29
2022-09-06T16:41:39.502Z,44.64
2022-09-06T16:44:08.689Z,45.44
2022-09-06T16:46:35.705Z,46.70
2022-09-06T16:49:03.244Z,46.99
2022-09-06T16:51:31.456Z,46.67
2022-09-06T16:53:59.132Z,46.90
2022-09-06T16:56:29.341Z,47.98
2022-09-06T16:58:58.762Z,49.31
2022-09-06T17:01:27.410Z,49.96
2022-09-06T17:03:54.783Z,52.33
2022-09-06T17:06:23.137Z,52.42
2022-09-06T17:08:51.004Z,53.17
2022-09-06T17:11:20.695Z,54.22
2022-09-06T17:13:49.985Z,54.68
2022-09-06T17:16:34.586Z,55.11
2022-09-06T17:19:02.518Z,56.21
2022-09-06T17:21:29.925Z,57.26
2022-09-06T17:24:05.537Z,57.71
2022-09-06T17:26:35.134Z,58.36
2022-09-06T17:29:02.938Z,59.25
2022-09-06T17:31:29.892Z,59.68
2022-09-06T17:33:57.049Z,60.57
2022-09-06T17:36:26.752Z,60.65
2022-09-06T17:39:00.234Z,60.91
2022-09-06T17:41:31.095Z,61.30
2022-09-06T17:43:58.989Z,62.13
2022-09-06T17:46:28.862Z,61.97
2022-09-06T17:48:57.258Z,62.12
2022-09-06T17:51:25.301Z,62.80
2022-09-06T17:53:52.914Z,63.49
2022-09-06T17:56:21.074Z,64.11
2022-09-06T17:58:58.751Z,64.58
2022-09-06T18:01:29.602Z,64.81
2022-09-06T18:03:57.348Z,65.14
2022-09-06T18:06:26.330Z,65.62
2022-09-06T18:08:55.876Z,65.97
2022-09-06T18:11:25.808Z,66.08
2022-09-06T18:13:59.116Z,66.81
2022-09-06T18:16:27.355Z,67.09
2022-09-06T18:18:56.568Z,67.72
2022-09-06T18:21:26.690Z,67.71
2022-09-06T18:23:54.898Z,67.97
2022-09-06T18:26:22.008Z,67.84
2022-09-06T18:28:49.136Z,68.27
2022-09-06T18:31:19.048Z,68.44
2022-09-06T18:33:46.139Z,69.28
2022-09-06T18:36:15.723Z,69.52
2022-09-06T18:38:43.321Z,70.18
2022-09-06T18:41:27.827Z,70.08
2022-09-06T18:43:58.357Z,70.05
2022-09-06T18:46:41.002Z,70.75
2022-09-06T18:49:08.242Z,70.05
2022-09-06T18:51:35.198Z,68.53
2022-09-06T18:54:02.481Z,67.55
2022-09-06T18:56:29.383Z,66.80
2022-09-06T18:58:58.794Z,65.90
2022-09-06T19:01:29.300Z,65.05
2022-09-06T19:03:57.872Z,64.42
2022-09-06T19:06:26.576Z,64.01
2022-09-06T19:08:54.090Z,63.88
2022-09-06T19:11:22.229Z,65.00
2022-09-06T19:13:53.001Z,65.87
2022-09-06T19:16:21.414Z,65.90
2022-09-06T19:18:49.192Z,66.37
2022-09-06T19:21:18.651Z,66.91
2022-09-06T19:23:47.904Z,66.98
2022-09-06T19:26:18.346Z,66.10
2022-09-06T19:28:55.822Z,66.44
2022-09-06T19:31:29.651Z,66.54
2022-09-06T19:33:56.904Z,65.67
2022-09-06T19:36:25.989Z,65.07
2022-09-06T19:39:05.926Z,64.64
2022-09-06T19:41:36.586Z,63.99
2022-09-06T19:44:06.038Z,64.26
2022-09-06T19:46:33.695Z,63.84
2022-09-06T19:49:00.996Z,62.97
2022-09-06T19:51:28.050Z,63.03
2022-09-06T19:53:58.164Z,62.90
2022-09-06T19:56:31.828Z,62.70
2022-09-06T19:59:01.650Z,62.96
2022-09-06T20:01:31.162Z,62.88
2022-09-06T20:03:59.060Z,63.61
2022-09-06T20:06:26.982Z,63.08
2022-09-06T20:08:56.148Z,62.53
2022-09-06T20:11:25.937Z,62.78
2022-09-06T20:13:53.016Z,62.75
2022-09-06T20:16:21.200Z,62.83
2022-09-06T20:18:48.712Z,62.52
2022-09-06T20:21:17.786Z,62.83
2022-09-06T20:23:49.812Z,62.54
2022-09-06T20:26:18.059Z,62.22
2022-09-06T20:28:45.643Z,62.49
2022-09-06T20:31:16.537Z,62.64
2022-09-06T20:33:49.198Z,62.17
2022-09-06T20:36:17.663Z,62.29
2022-09-06T20:38:46.319Z,62.44
2022-09-06T20:41:16.907Z,62.51
2022-09-06T20:43:43.838Z,62.69
2022-09-06T20:46:18.082Z,62.73
2022-09-06T20:48:46.299Z,62.67
2022-09-06T20:51:15.979Z,62.48
2022-09-06T20:53:42.936Z,62.48
2022-09-06T20:56:13.217Z,62.77
2022-09-06T20:58:40.955Z,63.00
2022-09-06T21:01:10.399Z,63.26
2022-09-06T21:03:39.635Z,63.24
2022-09-06T21:06:08.741Z,62.97
2022-09-06T21:08:39.489Z,62.88
2022-09-06T21:11:10.436Z,62.91
2022-09-06T21:13:37.916Z,62.67
2022-09-06T21:16:05.783Z,62.42
2022-09-06T21:18:33.886Z,61.66
2022-09-06T21:21:04.861Z,61.19
2022-09-06T21:23:34.497Z,60.69
2022-09-06T21:26:03.987Z,60.87
2022-09-06T21:28:33.337Z,60.17
2022-09-06T21:31:02.434Z,60.02
2022-09-06T21:33:31.863Z,59.57
2022-09-06T21:36:03.422Z,59.37
2022-09-06T21:38:31.395Z,59.66
2022-09-06T21:40:58.639Z,59.55
2022-09-06T21:43:26.170Z,59.30
2022-09-06T21:45:53.190Z,59.35
2022-09-06T21:48:20.522Z,59.41
2022-09-06T21:50:48.960Z,59.49
2022-09-06T21:53:17.644Z,59.50
2022-09-06T21:55:45.291Z,59.73
2022-09-06T21:58:13.694Z,60.16
2022-09-06T22:00:41.636Z,60.28
2022-09-06T22:03:09.442Z,59.28
2022-09-06T22:05:36.421Z,59.33
2022-09-06T22:08:03.586Z,58.52
2022-09-06T22:10:30.560Z,58.26
2022-09-06T22:12:57.489Z,58.35
2022-09-06T22:15:24.420Z,58.14
2022-09-06T22:17:51.386Z,58.60
2022-09-06T22:20:18.412Z,58.88
2022-09-06T22:22:46.319Z,58.65
2022-09-06T22:25:14.411Z,58.30
2022-09-06T22:27:41.647Z,57.67
2022-09-06T22:30:09.246Z,57.59
2022-09-06T22:32:37.195Z,57.54
2022-09-06T22:35:06.162Z,57.68
2022-09-06T22:37:34.163Z,58.40
2022-09-06T22:40:02.303Z,59.81
2022-09-06T22:42:29.766Z,59.74
2022-09-06T22:44:57.160Z,58.97
2022-09-06T22:47:24.139Z,59.34
2022-09-06T22:49:51.951Z,58.84
2022-09-06T22:52:19.077Z,59.04
2022-09-06T22:54:46.017Z,59.36
2022-09-06T22:57:13.022Z,58.68
2022-09-06T22:59:40.344Z,57.76
2022-09-06T23:02:07.287Z,56.57
2022-09-06T23:04:34.397Z,55.84
2022-09-06T23:07:02.602Z,56.09
2022-09-06T23:09:29.538Z,55.95
2022-09-06T23:11:56.485Z,55.43
2022-09-06T23:14:23.436Z,55.43
2022-09-06T23:16:50.661Z,55.80
2022-09-06T23:19:17.589Z,55.33
2022-09-06T23:21:44.661Z,55.72
2022-09-06T23:24:11.659Z,55.79
2022-09-06T23:26:38.597Z,56.35
2022-09-06T23:29:05.843Z,56.44
2022-09-06T23:31:33.365Z,56.88
2022-09-06T23:34:02.372Z,56.74
2022-09-06T23:36:29.569Z,56.01
2022-09-06T23:38:57.339Z,55.39
2022-09-06T23:41:24.975Z,55.54
2022-09-06T23:43:51.932Z,55.49
2022-09-06T23:46:19.510Z,55.64
2022-09-06T23:48:46.496Z,55.19
2022-09-06T23:51:14.003Z,55.60
2022-09-06T23:53:41.508Z,55.46
2022-09-06T23:56:08.553Z,55.89
2022-09-06T23:58:35.630Z,56.09
